Time;durP1;ratioP1;P1;durP2;ratioP2;P2;SDS_P1;SDS_P2;PMS_P1;PMS_P2;Temp;Humidity;BMP_temperature;BMP_pressure;BME280_temperature;BME280_humidity;BME280_pressure;Samples;Min_cycle;Max_cycle;Signal;HPM_P1;HPM_P2
2022/12/18 00:01:16;;;;;;;23.83;12.15;;;;;;;1.66;100.00;100702.66;5021298;28;20412;-42
2022/12/18 00:03:43;;;;;;;20.85;11.73;;;;;;;1.74;100.00;100698.47;5025902;28;20077;-43
2022/12/18 00:06:13;;;;;;;21.00;10.45;;;;;;;1.80;100.00;100698.13;5024731;28;20054;-42
2022/12/18 00:08:41;;;;;;;21.77;10.52;;;;;;;1.90;100.00;100685.50;5024451;28;20495;-42
2022/12/18 00:11:11;;;;;;;18.52;9.93;;;;;;;1.97;100.00;100688.69;5023015;28;20049;-42
2022/12/18 00:13:38;;;;;;;26.17;11.02;;;;;;;2.01;100.00;100685.09;5023870;28;20044;-42
2022/12/18 00:16:09;;;;;;;19.85;11.32;;;;;;;2.02;100.00;100691.34;5021431;28;20050;-42
2022/12/18 00:18:36;;;;;;;29.92;13.45;;;;;;;2.03;100.00;100695.72;5022119;28;20124;-45
2022/12/18 00:21:06;;;;;;;27.30;14.60;;;;;;;2.01;100.00;100689.75;5026365;28;20448;-42
2022/12/18 00:23:35;;;;;;;24.10;14.52;;;;;;;2.01;100.00;100687.81;5003223;28;20423;-42
2022/12/18 00:26:05;;;;;;;25.52;15.32;;;;;;;2.04;100.00;100684.50;5016869;28;20148;-44
2022/12/18 00:28:33;;;;;;;25.75;12.40;;;;;;;2.09;100.00;100702.75;5025604;28;20497;-42
2022/12/18 00:31:12;;;;;;;17.50;11.73;;;;;;;2.14;100.00;100705.44;5023193;28;20128;-42
2022/12/18 00:33:39;;;;;;;18.70;8.55;;;;;;;2.22;100.00;100707.53;5019997;28;20555;-42
2022/12/18 00:36:11;;;;;;;16.85;8.65;;;;;;;2.28;100.00;100704.44;5026516;28;20045;-45
2022/12/18 00:38:38;;;;;;;14.43;8.02;;;;;;;2.35;100.00;100698.63;5022228;28;20131;-40
2022/12/18 00:41:07;;;;;;;16.20;9.52;;;;;;;2.41;100.00;100692.78;5021216;28;20620;-39
2022/12/18 00:43:34;;;;;;;17.90;7.63;;;;;;;2.44;100.00;100689.47;5024177;28;20041;-39
2022/12/18 00:46:01;;;;;;;20.45;9.98;;;;;;;2.50;100.00;100692.97;5021082;28;20049;-40
2022/12/18 00:48:28;;;;;;;19.10;9.10;;;;;;;2.53;100.00;100694.28;5019229;28;20052;-39
2022/12/18 00:50:55;;;;;;;12.95;8.25;;;;;;;2.55;100.00;100690.16;5019919;28;20045;-39
2022/12/18 00:53:21;;;;;;;23.75;8.90;;;;;;;2.58;100.00;100681.38;5026559;28;20545;-42
2022/12/18 00:55:48;;;;;;;11.48;7.20;;;;;;;2.64;100.00;100685.69;5024152;28;20050;-40
2022/12/18 00:58:16;;;;;;;12.55;7.35;;;;;;;2.68;100.00;100678.50;5021608;28;20056;-39
2022/12/18 01:00:43;;;;;;;15.93;7.63;;;;;;;2.71;100.00;100672.44;5026168;28;20480;-39
2022/12/18 01:03:13;;;;;;;14.63;8.02;;;;;;;2.76;100.00;100672.38;5030629;28;20124;-39
2022/12/18 01:05:41;;;;;;;22.38;8.10;;;;;;;2.77;100.00;100665.81;5027317;28;20474;-39
2022/12/18 01:08:08;;;;;;;21.98;10.18;;;;;;;2.80;100.00;100664.41;5020892;28;20046;-40
2022/12/18 01:10:35;;;;;;;18.95;9.00;;;;;;;2.77;100.00;100660.34;5027575;28;20513;-43
2022/12/18 01:13:01;;;;;;;24.33;11.48;;;;;;;2.75;100.00;100657.09;5026713;28;20396;-39
2022/12/18 01:15:28;;;;;;;19.45;10.07;;;;;;;2.74;100.00;100658.19;5020628;28;20038;-39
2022/12/18 01:17:55;;;;;;;17.75;9.80;;;;;;;2.71;100.00;100649.75;5022306;28;20496;-39
2022/12/18 01:20:21;;;;;;;16.48;9.02;;;;;;;2.68;100.00;100645.69;5008851;28;20113;-39
2022/12/18 01:22:48;;;;;;;17.92;8.25;;;;;;;2.68;100.00;100650.34;5025065;28;20049;-39
2022/12/18 01:25:15;;;;;;;15.38;7.18;;;;;;;2.66;100.00;100647.94;5018197;28;20399;-39
2022/12/18 01:27:42;;;;;;;10.93;5.82;;;;;;;2.67;100.00;100637.81;5022440;28;20065;-39
2022/12/18 01:30:09;;;;;;;11.13;5.63;;;;;;;2.67;100.00;100632.34;5025862;28;20517;-47
2022/12/18 01:32:35;;;;;;;11.25;5.07;;;;;;;2.65;100.00;100629.88;5025856;28;20442;-42
2022/12/18 01:35:03;;;;;;;9.98;5.43;;;;;;;2.66;100.00;100637.00;5027316;28;20103;-49
2022/12/18 01:37:30;;;;;;;7.43;3.97;;;;;;;2.69;100.00;100633.66;5027299;28;20049;-41
2022/12/18 01:39:56;;;;;;;10.50;4.30;;;;;;;2.72;100.00;100635.81;5024139;28;20042;-41
2022/12/18 01:42:23;;;;;;;7.07;3.67;;;;;;;2.72;100.00;100630.34;5022880;28;20053;-42
2022/12/18 01:44:58;;;;;;;8.77;3.95;;;;;;;2.73;100.00;100615.56;5036498;28;20060;-39
2022/12/18 01:47:24;;;;;;;9.05;3.92;;;;;;;2.72;100.00;100613.94;5026507;28;20483;-39
2022/12/18 01:49:52;;;;;;;15.50;4.40;;;;;;;2.69;100.00;100598.13;5025856;28;20041;-40
2022/12/18 01:52:21;;;;;;;19.40;6.05;;;;;;;2.66;100.00;100590.53;5026984;28;20118;-39
2022/12/18 01:54:51;;;;;;;10.50;5.25;;;;;;;2.62;100.00;100586.75;5025483;28;20096;-40
2022/12/18 01:57:18;;;;;;;12.02;5.57;;;;;;;2.58;100.00;100572.06;5019285;28;20134;-43
2022/12/18 01:59:49;;;;;;;14.18;5.43;;;;;;;2.56;100.00;100570.75;5024731;28;20098;-39
2022/12/18 02:02:16;;;;;;;10.55;4.30;;;;;;;2.55;100.00;100569.09;5022342;28;20053;-39
2022/12/18 02:04:43;;;;;;;9.15;4.88;;;;;;;2.55;100.00;100563.63;5016835;28;20399;-41
2022/12/18 02:07:41;;;;;;;12.70;5.35;;;;;;;2.55;100.00;100559.00;5013981;28;20057;-45
2022/12/18 02:10:15;;;;;;;;;;;;;;;2.54;100.00;100546.47;5005928;28;20045;-42
2022/12/18 02:13:02;;;;;;;12.65;4.35;;;;;;;2.55;100.00;100552.72;5026690;28;19921;-43
2022/12/18 02:16:14;;;;;;;12.73;4.22;;;;;;;2.55;100.00;100548.06;5013707;28;20050;-39
2022/12/18 02:18:47;;;;;;;14.38;4.53;;;;;;;2.60;100.00;100555.34;5001997;28;20053;-41
2022/12/18 02:21:39;;;;;;;10.90;3.47;;;;;;;2.62;100.00;100556.69;5023246;28;20056;-39
2022/12/18 02:24:24;;;;;;;13.98;4.00;;;;;;;2.63;100.00;100558.31;5022327;28;20046;-39
2022/12/18 02:26:56;;;;;;;8.73;2.95;;;;;;;2.66;100.00;100555.00;5011673;28;20054;-41
2022/12/18 02:29:32;;;;;;;8.48;1.85;;;;;;;2.73;100.00;100554.59;5014594;28;20123;-39
2022/12/18 02:32:04;;;;;;;14.55;2.17;;;;;;;2.80;100.00;100550.41;5025690;28;20136;-40
2022/12/18 02:34:34;;;;;;;5.63;2.03;;;;;;;2.86;100.00;100549.19;5026912;28;20051;-39
2022/12/18 02:37:05;;;;;;;4.00;1.80;;;;;;;2.89;100.00;100537.66;5026488;28;20059;-39
2022/12/18 02:39:34;;;;;;;7.60;2.47;;;;;;;2.97;100.00;100539.72;5025185;28;20041;-40
2022/12/18 02:42:07;;;;;;;10.82;2.00;;;;;;;3.05;100.00;100530.81;5026810;28;20557;-39
2022/12/18 02:44:46;;;;;;;13.15;2.20;;;;;;;3.15;100.00;100534.50;5036830;28;20052;-39
2022/12/18 02:47:16;;;;;;;8.77;2.22;;;;;;;3.22;100.00;100537.63;5026331;28;20041;-40
2022/12/18 02:49:43;;;;;;;11.95;2.22;;;;;;;3.28;100.00;100536.44;5018969;28;20069;-39
2022/12/18 02:52:44;;;;;;;6.38;1.90;;;;;;;3.34;100.00;100548.91;5026500;28;20388;-43
2022/12/18 02:55:29;;;;;;;10.55;1.92;;;;;;;3.48;100.00;100544.25;5025848;28;20103;-39
2022/12/18 02:57:58;;;;;;;14.88;3.03;;;;;;;3.53;100.00;100525.00;5026386;28;20060;-39
2022/12/18 03:03:05;;;;;;;14.55;3.63;;;;;;;3.59;100.00;100515.59;4956936;22;20045;-39
2022/12/18 03:05:41;;;;;;;16.42;3.35;;;;;;;3.61;100.00;100516.09;5044167;28;20045;-45
2022/12/18 03:08:15;;;;;;;8.45;2.55;;;;;;;3.65;100.00;100496.00;5046101;28;20138;-40
2022/12/18 03:11:03;;;;;;;17.63;2.92;;;;;;;3.74;100.00;100498.84;5045680;28;20037;-44
2022/12/18 03:13:35;;;;;;;20.50;4.93;;;;;;;3.76;100.00;100477.44;5045905;28;20071;-39
2022/12/18 03:16:05;;;;;;;;;;;;;;;3.79;100.00;100473.25;5045418;28;20486;-40
2022/12/18 03:18:37;;;;;;;13.57;4.28;;;;;;;3.81;100.00;100469.13;5045822;28;20358;-40
2022/12/18 03:21:07;;;;;;;15.50;2.38;;;;;;;3.84;100.00;100465.75;5045791;28;20088;-39
2022/12/18 03:23:42;;;;;;;17.42;2.78;;;;;;;3.88;100.00;100447.59;5027569;28;20473;-39
2022/12/18 03:26:12;;;;;;;6.80;2.50;;;;;;;3.94;100.00;100445.56;5045089;28;20402;-39
2022/12/18 03:28:49;;;;;;;9.88;2.97;;;;;;;3.93;100.00;100439.28;5045762;28;20044;-40
2022/12/18 03:31:18;;;;;;;7.78;2.90;;;;;;;3.92;100.00;100431.38;5045756;28;20052;-42
2022/12/18 03:33:55;;;;;;;18.48;3.30;;;;;;;3.92;100.00;100426.69;5045731;28;20490;-39
2022/12/18 03:36:23;;;;;;;8.27;4.25;;;;;;;3.94;100.00;100419.00;5046176;28;20056;-40
2022/12/18 03:38:51;;;;;;;14.52;2.95;;;;;;;3.93;100.00;100411.06;5048692;28;20112;-40
2022/12/18 03:41:20;;;;;;;9.70;2.85;;;;;;;3.90;100.00;100407.03;5036114;28;20037;-39
2022/12/18 03:44:08;;;;;;;12.07;4.75;;;;;;;3.92;100.00;100412.22;5057883;28;20490;-39
2022/12/18 03:46:50;;;;;;;12.30;3.40;;;;;;;3.89;100.00;100430.03;5047017;28;20056;-40
2022/12/18 03:49:26;;;;;;;9.07;2.80;;;;;;;3.88;100.00;100412.00;5047760;28;20044;-44
2022/12/18 03:52:17;;;;;;;14.02;4.63;;;;;;;3.89;100.00;100408.13;5047016;28;20049;-39
2022/12/18 03:54:46;;;;;;;8.80;4.32;;;;;;;3.92;100.00;100423.94;5045175;28;20056;-40
2022/12/18 03:57:21;;;;;;;12.90;5.57;;;;;;;3.92;100.00;100418.47;5044743;28;20037;-44
2022/12/18 03:59:53;;;;;;;17.50;4.55;;;;;;;3.93;100.00;100413.81;5048086;28;20053;-40
2022/12/18 04:02:22;;;;;;;16.95;4.72;;;;;;;3.93;100.00;100398.19;5050028;28;20569;-40
2022/12/18 04:04:52;;;;;;;17.10;5.53;;;;;;;3.93;100.00;100398.19;5047953;28;20080;-39
2022/12/18 04:07:21;;;;;;;10.73;4.70;;;;;;;3.91;100.00;100381.28;5044973;28;20591;-40
2022/12/18 04:09:50;;;;;;;8.48;5.45;;;;;;;3.94;100.00;100377.09;5043578;28;20052;-39
2022/12/18 04:12:17;;;;;;;10.80;5.47;;;;;;;3.96;100.00;100375.66;5048140;28;20052;-39
2022/12/18 04:14:44;;;;;;;8.73;6.90;;;;;;;3.99;100.00;100372.31;5047227;28;20052;-43
2022/12/18 04:17:11;;;;;;;14.05;5.25;;;;;;;4.03;100.00;100361.53;5047203;28;20472;-40
2022/12/18 04:19:38;;;;;;;11.38;5.68;;;;;;;4.06;100.00;100374.59;5046969;28;20457;-40
2022/12/18 04:22:06;;;;;;;16.00;7.03;;;;;;;4.09;100.00;100372.06;5029776;28;20118;-39
2022/12/18 04:24:33;;;;;;;20.60;6.80;;;;;;;4.12;100.00;100370.63;5047019;28;20568;-40
2022/12/18 04:26:59;;;;;;;14.15;6.78;;;;;;;4.13;100.00;100344.88;5045811;28;20495;-46
2022/12/18 04:29:29;;;;;;;22.52;6.63;;;;;;;4.14;100.00;100352.75;5047654;28;20056;-41
2022/12/18 04:31:55;;;;;;;17.20;6.78;;;;;;;4.16;100.00;100336.81;5046446;28;20041;-39
2022/12/18 04:34:22;;;;;;;15.50;7.80;;;;;;;4.20;100.00;100332.34;5047418;28;20486;-39
2022/12/18 04:36:49;;;;;;;21.60;7.60;;;;;;;4.22;100.00;100321.06;5046640;28;20056;-39
2022/12/18 04:39:18;;;;;;;16.77;7.97;;;;;;;4.21;100.00;100309.28;5046106;28;20043;-40
2022/12/18 04:41:45;;;;;;;21.88;7.25;;;;;;;4.23;100.00;100326.25;5047296;28;20037;-39
2022/12/18 04:44:12;;;;;;;18.52;6.88;;;;;;;4.26;100.00;100314.63;5029170;28;20099;-39
2022/12/18 04:46:38;;;;;;;13.27;6.68;;;;;;;4.28;100.00;100323.38;5046525;28;20047;-40
2022/12/18 04:49:05;;;;;;;23.20;8.00;;;;;;;4.29;100.00;100324.97;5045207;28;20044;-40
2022/12/18 04:51:32;;;;;;;14.88;7.28;;;;;;;4.29;100.00;100315.94;5046854;28;20045;-40
2022/12/18 04:53:58;;;;;;;30.30;7.07;;;;;;;4.30;100.00;100315.63;5047032;28;20053;-45
2022/12/18 04:56:25;;;;;;;18.90;7.55;;;;;;;4.35;100.00;100313.88;5046637;28;20045;-40
2022/12/18 04:58:52;;;;;;;28.55;8.15;;;;;;;4.38;100.00;100285.84;5028045;28;20069;-39
2022/12/18 05:01:19;;;;;;;19.25;5.88;;;;;;;4.40;100.00;100297.28;5047859;28;20052;-39
2022/12/18 05:03:46;;;;;;;21.15;7.63;;;;;;;4.41;100.00;100282.47;5047304;28;20037;-40
2022/12/18 05:06:13;;;;;;;18.98;7.03;;;;;;;4.46;100.00;100276.84;5037710;28;20076;-39
2022/12/18 05:08:42;;;;;;;25.42;7.57;;;;;;;4.47;100.00;100284.78;5047406;28;20109;-43
2022/12/18 05:11:15;;;;;;;24.55;8.90;;;;;;;4.49;100.00;100279.78;5047250;28;20467;-39
2022/12/18 05:13:43;;;;;;;18.80;5.72;;;;;;;4.51;100.00;100268.47;5047936;28;20056;-48
2022/12/18 05:16:10;;;;;;;21.52;7.05;;;;;;;4.54;100.00;100276.06;5047134;28;20049;-40
2022/12/18 05:18:37;;;;;;;26.77;7.00;;;;;;;4.52;100.00;100267.38;5046599;28;20053;-39
2022/12/18 05:21:04;;;;;;;24.15;7.25;;;;;;;4.53;100.00;100261.56;5045267;28;20060;-39
2022/12/18 05:23:34;;;;;;;24.90;6.95;;;;;;;4.54;100.00;100243.19;5045547;28;20051;-40
2022/12/18 05:26:04;;;;;;;18.80;5.95;;;;;;;4.52;100.00;100229.00;5044832;28;20045;-43
2022/12/18 05:28:33;;;;;;;25.00;6.07;;;;;;;4.51;100.00;100216.41;5047617;28;20127;-40
2022/12/18 05:31:02;;;;;;;18.65;7.28;;;;;;;4.51;100.00;100224.63;5047632;28;20140;-40
2022/12/18 05:33:31;;;;;;;11.57;5.25;;;;;;;4.50;100.00;100215.59;5047259;28;20059;-40
2022/12/18 05:36:02;;;;;;;26.05;8.63;;;;;;;4.51;100.00;100205.44;5046094;28;20090;-40
2022/12/18 05:38:30;;;;;;;19.35;6.72;;;;;;;4.51;100.00;100199.97;5046782;28;20045;-40
2022/12/18 05:40:57;;;;;;;28.42;6.53;;;;;;;4.49;100.00;100189.31;5047418;28;20128;-40
2022/12/18 05:43:27;;;;;;;17.13;6.35;;;;;;;4.50;100.00;100176.44;5054239;28;20087;-39
2022/12/18 05:45:55;;;;;;;13.80;6.03;;;;;;;4.50;100.00;100177.22;5047758;28;20080;-39
2022/12/18 05:48:22;;;;;;;15.95;5.45;;;;;;;4.51;100.00;100156.91;5047055;28;20481;-44
2022/12/18 05:50:50;;;;;;;13.65;5.93;;;;;;;4.50;100.00;100170.94;5045945;28;20494;-39
2022/12/18 05:53:19;;;;;;;17.33;5.45;;;;;;;4.51;100.00;100180.78;5047075;28;20049;-40
2022/12/18 05:55:47;;;;;;;19.27;6.95;;;;;;;4.51;100.00;100165.13;5042974;28;20052;-39
2022/12/18 05:58:15;;;;;;;12.07;5.05;;;;;;;4.52;100.00;100161.28;5046591;28;20041;-39
2022/12/18 06:00:45;;;;;;;16.23;5.63;;;;;;;4.53;100.00;100160.13;5046309;28;20033;-39
2022/12/18 06:03:13;;;;;;;15.85;5.13;;;;;;;4.53;100.00;100162.06;5050106;28;20529;-40
2022/12/18 06:05:42;;;;;;;16.63;4.95;;;;;;;4.52;100.00;100182.41;5045873;28;20060;-40
2022/12/18 06:08:10;;;;;;;13.85;7.00;;;;;;;4.52;100.00;100176.91;5047013;28;20045;-39
2022/12/18 06:10:37;;;;;;;21.92;5.93;;;;;;;4.52;100.00;100177.72;5046622;28;20056;-40
2022/12/18 06:13:05;;;;;;;17.45;5.63;;;;;;;4.54;100.00;100166.44;5045930;28;20076;-39
2022/12/18 06:15:32;;;;;;;11.50;4.57;;;;;;;4.53;100.00;100154.66;5045691;28;20040;-39
2022/12/18 06:18:00;;;;;;;18.15;5.68;;;;;;;4.54;100.00;100155.47;5046661;28;20410;-40
2022/12/18 06:20:30;;;;;;;15.85;6.15;;;;;;;4.53;100.00;100142.88;5031676;28;20069;-39
2022/12/18 06:22:59;;;;;;;18.50;5.90;;;;;;;4.54;100.00;100128.88;5043081;28;20059;-43
2022/12/18 06:25:26;;;;;;;16.90;6.43;;;;;;;4.55;100.00;100149.69;5045566;28;20445;-39
2022/12/18 06:28:01;;;;;;;18.55;6.20;;;;;;;4.56;100.00;100132.09;5046360;28;20447;-43
2022/12/18 06:30:27;;;;;;;14.80;5.45;;;;;;;4.55;100.00;100129.69;5045697;28;20082;-39
2022/12/18 06:32:54;;;;;;;21.45;5.70;;;;;;;4.54;100.00;100122.56;5046489;28;20426;-39
2022/12/18 06:35:23;;;;;;;12.85;6.22;;;;;;;4.55;100.00;100124.19;5045904;28;20045;-40
2022/12/18 06:37:49;;;;;;;15.85;5.30;;;;;;;4.53;100.00;100120.94;5046169;28;20120;-39
2022/12/18 06:40:16;;;;;;;16.00;5.10;;;;;;;4.52;100.00;100122.09;5045106;28;20049;-40
2022/12/18 06:42:43;;;;;;;15.85;5.55;;;;;;;4.50;100.00;100103.22;5045586;28;20059;-39
2022/12/18 06:45:11;;;;;;;11.30;3.80;;;;;;;4.49;100.00;100087.09;5046532;28;20048;-40
2022/12/18 06:47:37;;;;;;;8.48;4.40;;;;;;;4.46;100.00;100076.78;5045870;28;20065;-39
2022/12/18 06:50:05;;;;;;;11.77;3.78;;;;;;;4.43;100.00;100088.38;5045607;28;20445;-39
2022/12/18 06:52:33;;;;;;;10.38;3.55;;;;;;;4.38;100.00;100086.59;5044940;28;20163;-40
2022/12/18 06:55:00;;;;;;;12.65;3.97;;;;;;;4.37;100.00;100073.22;5043465;28;20135;-39
2022/12/18 06:57:27;;;;;;;8.75;3.30;;;;;;;4.32;100.00;100072.25;5039281;28;20091;-40
2022/12/18 06:59:54;;;;;;;7.55;2.88;;;;;;;4.29;100.00;100055.63;5045608;28;20049;-39
2022/12/18 07:02:21;;;;;;;16.85;4.28;;;;;;;4.29;100.00;100066.59;5046472;28;20554;-39
2022/12/18 07:04:50;;;;;;;14.32;3.53;;;;;;;4.22;100.00;100038.88;5041004;28;20134;-40
2022/12/18 07:07:18;;;;;;;11.88;3.30;;;;;;;4.22;100.00;100058.84;5041371;28;20053;-40
2022/12/18 07:09:44;;;;;;;11.10;2.47;;;;;;;4.17;100.00;100050.78;5045747;28;20044;-39
2022/12/18 07:12:11;;;;;;;10.38;3.28;;;;;;;4.15;100.00;100035.81;5048575;28;20077;-40
2022/12/18 07:14:38;;;;;;;10.65;3.58;;;;;;;4.12;100.00;100028.22;5047830;28;20048;-39
2022/12/18 07:17:04;;;;;;;10.52;2.47;;;;;;;4.08;100.00;100017.09;5048832;28;20049;-39
2022/12/18 07:19:32;;;;;;;9.40;2.10;;;;;;;4.09;100.00;100015.97;5048631;28;20370;-39
2022/12/18 07:21:59;;;;;;;13.25;3.20;;;;;;;4.05;100.00;100014.97;5045044;28;20045;-39
2022/12/18 07:24:27;;;;;;;7.63;2.50;;;;;;;4.08;100.00;100027.22;5047753;28;20056;-42
2022/12/18 07:26:54;;;;;;;10.73;3.70;;;;;;;4.05;100.00;100014.97;5049315;28;20629;-41
2022/12/18 07:29:20;;;;;;;6.65;2.75;;;;;;;4.08;100.00;100006.13;5048596;28;20040;-39
2022/12/18 07:31:47;;;;;;;6.57;3.22;;;;;;;4.07;100.00;99992.75;5049579;28;20067;-39
2022/12/18 07:34:15;;;;;;;7.68;2.80;;;;;;;4.07;100.00;99990.84;5048854;28;20051;-42
2022/12/18 07:36:42;;;;;;;12.90;3.63;;;;;;;4.11;100.00;99977.28;5048384;28;20041;-40
2022/12/18 07:39:11;;;;;;;10.32;3.70;;;;;;;4.12;100.00;99982.47;5045666;28;20562;-39
2022/12/18 07:41:37;;;;;;;8.70;3.55;;;;;;;4.15;100.00;99994.72;5031663;28;20448;-39
2022/12/18 07:44:12;;;;;;;7.95;4.45;;;;;;;4.20;100.00;99987.16;5051511;28;20049;-39
2022/12/18 07:46:39;;;;;;;16.40;4.72;;;;;;;4.24;100.00;99968.91;5046321;28;20049;-40
2022/12/18 07:49:05;;;;;;;15.13;4.50;;;;;;;4.27;100.00;99940.88;5049691;28;20044;-41
2022/12/18 07:51:32;;;;;;;11.00;4.18;;;;;;;4.29;100.00;99935.88;5049460;28;20037;-39
2022/12/18 07:53:59;;;;;;;8.68;3.85;;;;;;;4.30;100.00;99921.06;5048413;28;20048;-39
2022/12/18 07:56:25;;;;;;;17.48;5.95;;;;;;;4.32;100.00;99912.50;5048014;28;20053;-39
2022/12/18 07:58:54;;;;;;;15.48;6.43;;;;;;;4.33;100.00;99908.66;5042061;28;20083;-39
2022/12/18 08:01:21;;;;;;;9.38;4.43;;;;;;;4.32;100.00;99899.63;5044832;28;20095;-42
2022/12/18 08:03:48;;;;;;;13.23;5.07;;;;;;;4.34;100.00;99877.38;5047635;28;20568;-39
2022/12/18 08:06:18;;;;;;;12.13;4.70;;;;;;;4.34;100.00;99877.38;5048505;28;20052;-39
2022/12/18 08:08:47;;;;;;;16.48;4.78;;;;;;;4.32;100.00;99858.50;5046860;28;20048;-40
2022/12/18 08:11:13;;;;;;;11.15;5.20;;;;;;;4.31;100.00;99862.38;5046817;28;20394;-39
2022/12/18 08:13:40;;;;;;;19.17;5.32;;;;;;;4.30;100.00;99863.53;5047074;28;20044;-40
2022/12/18 08:16:08;;;;;;;14.15;4.97;;;;;;;4.32;100.00;99849.47;5044412;28;20136;-41
2022/12/18 08:18:36;;;;;;;15.98;5.55;;;;;;;4.32;100.00;99853.03;5046435;28;20072;-39
2022/12/18 08:21:15;;;;;;;17.85;6.22;;;;;;;4.34;100.00;99838.22;5044365;28;20384;-40
2022/12/18 08:23:43;;;;;;;13.18;5.82;;;;;;;4.34;100.00;99843.69;5046668;28;20044;-41
2022/12/18 08:26:13;;;;;;;17.88;5.15;;;;;;;4.35;100.00;99850.78;5046102;28;20057;-40
2022/12/18 08:28:41;;;;;;;15.18;5.32;;;;;;;4.33;100.00;99845.63;5046117;28;20041;-40
2022/12/18 08:31:08;;;;;;;21.30;7.50;;;;;;;4.32;100.00;99835.78;5048568;28;20053;-41
2022/12/18 08:33:36;;;;;;;13.02;5.97;;;;;;;4.29;100.00;99830.94;5047293;28;20713;-39
2022/12/18 08:36:04;;;;;;;19.83;6.35;;;;;;;4.27;100.00;99825.81;5047211;28;20114;-40
2022/12/18 08:38:34;;;;;;;15.73;7.25;;;;;;;4.27;100.00;99823.06;5049934;28;20052;-41
2022/12/18 08:41:09;;;;;;;14.57;6.18;;;;;;;4.28;100.00;99816.47;5048174;28;20048;-40
2022/12/18 08:46:26;;;;;;;20.33;6.15;;;;;;;4.31;100.00;99791.13;5042655;28;20044;-40
2022/12/18 08:48:55;;;;;;;20.05;6.45;;;;;;;4.31;100.00;99795.84;5048638;28;20033;-40
2022/12/18 08:51:22;;;;;;;15.65;6.28;;;;;;;4.32;100.00;99791.94;5048635;28;20045;-40
2022/12/18 08:53:49;;;;;;;22.90;6.05;;;;;;;4.32;100.00;99787.28;5047421;28;20529;-41
2022/12/18 08:56:16;;;;;;;20.92;7.65;;;;;;;4.34;100.00;99791.63;5044219;28;20052;-42
2022/12/18 08:58:43;;;;;;;18.73;5.90;;;;;;;4.34;100.00;99775.19;5047977;28;20124;-40
2022/12/18 09:01:12;;;;;;;18.60;7.28;;;;;;;4.35;100.00;99774.03;5048264;28;20522;-41
2022/12/18 09:03:39;;;;;;;21.05;7.80;;;;;;;4.37;100.00;99777.28;5048452;28;20099;-41
2022/12/18 09:06:08;;;;;;;17.23;7.50;;;;;;;4.40;100.00;99782.09;5045682;28;20521;-44
2022/12/18 09:08:36;;;;;;;14.50;7.43;;;;;;;4.40;100.00;99782.91;5044347;28;20047;-40
2022/12/18 09:11:03;;;;;;;19.70;7.55;;;;;;;4.41;100.00;99773.56;5049724;28;20045;-40
2022/12/18 09:13:30;;;;;;;12.98;7.03;;;;;;;4.44;100.00;99769.34;5029962;28;20036;-41
2022/12/18 09:15:58;;;;;;;18.33;8.25;;;;;;;4.46;100.00;99780.78;5046239;28;20136;-40
2022/12/18 09:18:25;;;;;;;22.80;7.18;;;;;;;4.46;100.00;99756.13;5047638;28;20512;-41
2022/12/18 09:20:52;;;;;;;21.30;5.88;;;;;;;4.49;100.00;99755.47;5046849;28;20060;-40
2022/12/18 09:23:20;;;;;;;19.75;6.25;;;;;;;4.51;100.00;99761.41;5047745;28;20037;-42
2022/12/18 09:25:48;;;;;;;28.42;8.70;;;;;;;4.51;100.00;99755.94;5046343;28;20044;-40
2022/12/18 09:28:17;;;;;;;17.88;7.43;;;;;;;4.50;100.00;99749.66;5036772;28;20037;-40
2022/12/18 09:30:47;;;;;;;21.60;6.35;;;;;;;4.50;100.00;99722.25;5047662;28;20049;-41
2022/12/18 09:33:14;;;;;;;20.67;7.85;;;;;;;4.49;100.00;99722.56;5046704;28;20044;-40
2022/12/18 09:35:43;;;;;;;25.45;7.40;;;;;;;4.50;100.00;99715.97;5045702;28;20163;-41
2022/12/18 09:38:16;;;;;;;21.50;8.88;;;;;;;4.50;100.00;99685.84;5044326;28;20044;-40
2022/12/18 09:40:55;;;;;;;20.92;7.72;;;;;;;4.50;100.00;99688.56;5045379;28;20045;-42
2022/12/18 09:43:27;;;;;;;20.73;7.43;;;;;;;4.53;100.00;99682.41;5050185;28;20048;-40
2022/12/18 09:45:59;;;;;;;22.35;6.03;;;;;;;4.55;100.00;99680.16;5042891;28;20481;-41
2022/12/18 09:48:35;;;;;;;23.38;7.45;;;;;;;4.56;100.00;99684.47;5047654;28;20041;-40
2022/12/18 09:51:11;;;;;;;20.05;6.60;;;;;;;4.58;100.00;99684.97;5035776;28;20396;-42
2022/12/18 09:53:40;;;;;;;16.85;6.40;;;;;;;4.59;100.00;99675.59;5039623;28;20049;-40
2022/12/18 09:56:15;;;;;;;12.82;5.28;;;;;;;4.59;100.00;99670.94;5044193;28;20059;-40
2022/12/18 09:58:55;;;;;;;14.32;5.25;;;;;;;4.62;100.00;99659.31;5046359;28;20041;-45
2022/12/18 10:01:23;;;;;;;19.77;6.03;;;;;;;4.64;100.00;99672.66;5029891;28;20049;-41
2022/12/18 10:03:51;;;;;;;11.27;5.85;;;;;;;4.65;100.00;99663.31;5046785;28;20124;-44
2022/12/18 10:06:36;;;;;;;12.05;6.30;;;;;;;4.63;100.00;99663.63;5046852;28;20048;-40
2022/12/18 10:09:38;;;;;;;16.55;5.60;;;;;;;4.64;100.00;99662.50;5017326;28;20522;-40
2022/12/18 10:12:21;;;;;;;10.27;5.22;;;;;;;4.65;100.00;99657.84;5033499;28;20568;-40
2022/12/18 10:15:07;;;;;;;13.68;6.30;;;;;;;4.65;100.00;99677.84;5045689;28;20041;-41
2022/12/18 10:17:56;;;;;;;11.95;4.55;;;;;;;4.65;100.00;99649.63;5028713;28;20037;-40
2022/12/18 10:20:45;;;;;;;11.55;5.43;;;;;;;4.65;100.00;99650.41;5046460;28;20506;-40
2022/12/18 10:23:14;;;;;;;13.65;6.03;;;;;;;4.66;100.00;99648.50;5046414;28;20131;-40
2022/12/18 10:26:04;;;;;;;14.63;5.93;;;;;;;4.67;100.00;99644.59;5045756;28;20048;-41
2022/12/18 10:28:33;;;;;;;17.52;5.70;;;;;;;4.68;100.00;99621.53;5045597;28;20079;-40
2022/12/18 10:30:59;;;;;;;14.90;6.13;;;;;;;4.68;100.00;99616.06;5048678;28;20072;-40
2022/12/18 10:33:32;;;;;;;12.43;5.38;;;;;;;4.70;100.00;99606.38;5056818;28;20156;-40
2022/12/18 10:36:00;;;;;;;12.77;6.28;;;;;;;4.73;100.00;99607.63;5043423;28;20041;-41
2022/12/18 10:38:31;;;;;;;21.45;7.18;;;;;;;4.76;100.00;99609.72;5046242;28;20071;-43
2022/12/18 10:41:05;;;;;;;16.15;6.35;;;;;;;4.79;100.00;99606.31;5046522;28;20041;-40
2022/12/18 10:43:36;;;;;;;25.50;7.53;;;;;;;4.82;100.00;99608.34;5034612;28;20540;-41
2022/12/18 10:46:09;;;;;;;16.05;6.18;;;;;;;4.85;100.00;99588.50;5047722;28;20044;-40
2022/12/18 10:48:39;;;;;;;10.43;5.00;;;;;;;4.86;100.00;99588.19;5045520;28;20060;-40
2022/12/18 10:51:09;;;;;;;16.08;5.85;;;;;;;4.90;100.00;99589.09;5050215;28;20508;-40
2022/12/18 10:53:42;;;;;;;16.02;7.15;;;;;;;4.92;100.00;99591.53;5049724;28;20040;-40
2022/12/18 10:56:09;;;;;;;26.92;10.02;;;;;;;4.95;100.00;99601.00;5050373;28;20049;-40
2022/12/18 10:58:38;;;;;;;23.83;10.23;;;;;;;4.97;100.00;99598.72;5048895;28;20483;-40
2022/12/18 11:01:20;;;;;;;25.42;9.50;;;;;;;4.99;100.00;99596.44;5048266;28;20049;-40
2022/12/18 11:03:50;;;;;;;18.25;6.15;;;;;;;5.00;100.00;99587.91;5048353;28;20041;-41
2022/12/18 11:06:21;;;;;;;22.33;8.30;;;;;;;5.01;100.00;99573.03;5050020;28;20052;-40
2022/12/18 11:09:05;;;;;;;31.58;11.07;;;;;;;5.04;100.00;99577.84;5050161;28;20052;-40
2022/12/18 11:11:40;;;;;;;31.90;10.40;;;;;;;5.05;100.00;99559.44;5045986;28;20044;-43
2022/12/18 11:14:18;;;;;;;26.88;9.73;;;;;;;5.06;100.00;99537.16;5040500;28;20164;-47
2022/12/18 11:16:47;;;;;;;21.35;8.30;;;;;;;5.09;100.00;99541.16;5047902;28;20048;-40
2022/12/18 11:19:39;;;;;;;17.83;8.02;;;;;;;5.11;100.00;99520.47;5044287;28;20052;-40
2022/12/18 11:22:27;;;;;;;22.77;10.90;;;;;;;5.13;100.00;99504.50;5043589;28;20033;-41
2022/12/18 11:25:02;;;;;;;25.45;10.27;;;;;;;5.16;100.00;99506.56;5042585;28;20064;-40
2022/12/18 11:27:52;;;;;;;25.63;8.50;;;;;;;5.19;100.00;99513.31;5039248;28;20486;-41
2022/12/18 11:30:37;;;;;;;22.17;8.52;;;;;;;5.21;100.00;99489.91;5043640;28;20080;-43
2022/12/18 11:33:17;;;;;;;21.58;7.93;;;;;;;5.24;100.00;99489.19;5047312;28;20053;-48
2022/12/18 11:35:52;;;;;;;21.40;6.95;;;;;;;5.28;100.00;99481.09;5038570;28;20045;-41
2022/12/18 11:38:42;;;;;;;21.88;7.30;;;;;;;5.32;100.00;99479.28;5028877;28;20041;-40
2022/12/18 11:44:32;;;;;;;22.35;7.35;;;;;;;5.39;100.00;99465.78;5050418;28;20060;-41
2022/12/18 11:47:09;;;;;;;22.92;8.27;;;;;;;5.41;100.00;99453.31;5045989;28;20053;-40